Time;durP1;ratioP1;P1;durP2;ratioP2;P2;SDS_P1;SDS_P2;PMS_P1;PMS_P2;Temp;Humidity;BMP_temperature;BMP_pressure;BME280_temperature;BME280_humidity;BME280_pressure;Samples;Min_cycle;Max_cycle;Signal;HPM_P1;HPM_P2
2021/12/13 00:01:43;;;;;;;24.50;17.47;;;;;;;;;;5075913;28;20206;-62
2021/12/13 00:04:11;;;;;;;23.70;17.00;;;;;;;;;;5075449;28;20692;-61
2021/12/13 00:06:39;;;;;;;24.60;17.57;;;;;;;;;;5075615;28;20238;-60
2021/12/13 00:09:07;;;;;;;20.63;16.63;;;;;;;;;;5075408;28;20204;-61
2021/12/13 00:11:34;;;;;;;22.63;16.73;;;;;;;;;;5075590;28;20191;-61
2021/12/13 00:14:01;;;;;;;24.83;17.23;;;;;;;;;;5075622;28;20192;-61
2021/12/13 00:16:28;;;;;;;19.20;15.53;;;;;;;;;;5075499;28;20644;-61
2021/12/13 00:18:56;;;;;;;21.53;16.13;;;;;;;;;;5075650;28;20207;-61
2021/12/13 00:21:30;;;;;;;21.50;16.77;;;;;;;;;;5075332;28;20242;-62
2021/12/13 00:23:58;;;;;;;21.37;16.37;;;;;;;;;;5075399;28;20208;-61
2021/12/13 00:26:26;;;;;;;18.67;15.73;;;;;;;;;;5075147;28;20251;-60
2021/12/13 00:28:52;;;;;;;21.07;15.80;;;;;;;;;;5075459;28;20635;-61
2021/12/13 00:31:23;;;;;;;21.93;16.17;;;;;;;;;;5074833;28;20206;-61
2021/12/13 00:33:56;;;;;;;19.10;14.77;;;;;;;;;;5073328;28;20211;-65
2021/12/13 00:36:32;;;;;;;18.87;15.33;;;;;;;;;;5075056;28;20202;-65
2021/12/13 00:39:00;;;;;;;22.77;15.67;;;;;;;;;;5075001;28;20235;-65
2021/12/13 00:41:27;;;;;;;16.73;14.27;;;;;;;;;;5074974;28;20188;-65
2021/12/13 00:43:55;;;;;;;22.77;16.73;;;;;;;;;;5074905;28;20188;-66
2021/12/13 00:46:22;;;;;;;24.83;17.00;;;;;;;;;;5074686;28;20228;-65
2021/12/13 00:48:50;;;;;;;18.80;14.83;;;;;;;;;;5074984;28;20290;-65
2021/12/13 00:51:19;;;;;;;21.80;16.63;;;;;;;;;;5074824;28;20192;-66
2021/12/13 00:53:47;;;;;;;18.80;14.57;;;;;;;;;;5074974;28;20279;-65
2021/12/13 00:56:32;;;;;;;21.70;16.17;;;;;;;;;;5074614;28;20630;-65
2021/12/13 00:58:58;;;;;;;18.37;14.27;;;;;;;;;;5074802;28;20188;-62
2021/12/13 01:01:24;;;;;;;23.40;16.20;;;;;;;;;;5074248;28;20203;-63
2021/12/13 01:03:50;;;;;;;22.27;15.43;;;;;;;;;;5073069;28;20199;-64
2021/12/13 01:06:55;;;;;;;21.20;15.13;;;;;;;;;;5074169;28;20776;-61
2021/12/13 01:09:38;;;;;;;21.33;14.40;;;;;;;;;;5074535;28;20590;-68
2021/12/13 01:12:08;;;;;;;20.67;15.07;;;;;;;;;;5074502;28;20199;-69
2021/12/13 01:14:43;;;;;;;20.73;15.23;;;;;;;;;;5073779;28;20274;-69
2021/12/13 01:17:20;;;;;;;22.70;14.97;;;;;;;;;;5054050;28;20191;-69
2021/12/13 01:19:53;;;;;;;24.50;15.77;;;;;;;;;;5054146;28;20463;-69
2021/12/13 01:22:46;;;;;;;24.67;16.83;;;;;;;;;;5054012;28;20678;-68
2021/12/13 01:28:09;;;;;;;27.70;17.23;;;;;;;;;;5051592;28;20211;-67
2021/12/13 01:30:38;;;;;;;24.50;16.23;;;;;;;;;;5054148;28;20214;-69
2021/12/13 01:33:05;;;;;;;28.20;17.60;;;;;;;;;;5054008;28;20200;-68
2021/12/13 01:35:34;;;;;;;25.70;16.30;;;;;;;;;;5054136;28;20203;-67
2021/12/13 01:38:05;;;;;;;27.07;17.87;;;;;;;;;;5053895;28;20236;-68
2021/12/13 01:40:33;;;;;;;26.57;17.93;;;;;;;;;;5053853;28;20196;-68
2021/12/13 01:43:01;;;;;;;33.60;18.90;;;;;;;;;;5053359;28;20287;-67
2021/12/13 01:45:30;;;;;;;30.93;18.33;;;;;;;;;;5053639;28;20271;-68
2021/12/13 01:47:57;;;;;;;33.70;19.50;;;;;;;;;;5053866;28;20399;-69
2021/12/13 01:50:25;;;;;;;33.30;18.47;;;;;;;;;;5053777;28;20187;-68
2021/12/13 01:52:52;;;;;;;34.37;21.23;;;;;;;;;;5053847;28;20629;-69
2021/12/13 01:55:22;;;;;;;36.47;20.70;;;;;;;;;;5053583;28;20230;-68
2021/12/13 01:57:53;;;;;;;36.03;19.73;;;;;;;;;;5053648;28;20200;-69
2021/12/13 02:00:32;;;;;;;32.73;20.40;;;;;;;;;;5053522;28;20200;-69
2021/12/13 02:02:59;;;;;;;36.10;20.87;;;;;;;;;;5053617;28;20261;-69
2021/12/13 02:05:27;;;;;;;36.77;20.73;;;;;;;;;;5053218;28;20228;-69
2021/12/13 02:07:54;;;;;;;35.10;19.20;;;;;;;;;;5053429;28;20287;-69
2021/12/13 02:10:23;;;;;;;41.60;22.00;;;;;;;;;;5053294;28;20196;-68
2021/12/13 02:12:56;;;;;;;35.87;20.43;;;;;;;;;;5053369;28;20200;-67
2021/12/13 02:18:10;;;;;;;33.23;19.93;;;;;;;;;;5053138;28;20230;-67
2021/12/13 02:20:39;;;;;;;33.87;20.67;;;;;;;;;;5053229;28;20202;-69
2021/12/13 02:23:07;;;;;;;30.60;19.93;;;;;;;;;;5053032;28;20651;-68
2021/12/13 02:25:35;;;;;;;31.00;19.90;;;;;;;;;;5052989;28;20236;-66
2021/12/13 02:28:03;;;;;;;30.97;20.20;;;;;;;;;;5053151;28;20254;-67
2021/12/13 02:30:33;;;;;;;33.27;20.90;;;;;;;;;;5052820;28;20207;-67
2021/12/13 02:33:00;;;;;;;34.27;21.43;;;;;;;;;;5053039;28;20196;-67
2021/12/13 02:35:28;;;;;;;35.53;21.50;;;;;;;;;;5052842;28;20200;-69
2021/12/13 02:37:56;;;;;;;32.00;21.40;;;;;;;;;;5052745;28;20228;-67
2021/12/13 02:40:24;;;;;;;30.40;20.93;;;;;;;;;;5052811;28;20200;-69
2021/12/13 02:42:50;;;;;;;36.07;21.57;;;;;;;;;;5052854;28;20258;-68
2021/12/13 02:45:19;;;;;;;34.43;21.60;;;;;;;;;;5052568;28;20216;-68
2021/12/13 02:47:48;;;;;;;31.37;22.07;;;;;;;;;;5052854;28;20196;-68
2021/12/13 02:50:16;;;;;;;33.73;22.23;;;;;;;;;;5052651;28;20616;-68
2021/12/13 02:52:42;;;;;;;43.17;23.60;;;;;;;;;;5052684;28;20196;-68
2021/12/13 02:55:10;;;;;;;41.80;23.73;;;;;;;;;;5051644;28;20246;-67
2021/12/13 02:57:39;;;;;;;36.27;22.27;;;;;;;;;;5052528;28;20200;-67
2021/12/13 03:00:08;;;;;;;40.83;23.23;;;;;;;;;;5052535;28;20293;-67
2021/12/13 03:02:38;;;;;;;36.83;22.93;;;;;;;;;;5052493;28;20280;-68
2021/12/13 03:05:06;;;;;;;34.47;22.70;;;;;;;;;;5052355;28;20219;-70
2021/12/13 03:07:35;;;;;;;36.47;22.27;;;;;;;;;;5052417;28;20655;-70
2021/12/13 03:10:04;;;;;;;36.80;22.43;;;;;;;;;;5052293;28;20195;-68
2021/12/13 03:12:30;;;;;;;41.33;23.40;;;;;;;;;;5052565;28;20200;-67
2021/12/13 03:15:00;;;;;;;35.77;22.90;;;;;;;;;;5052316;28;20223;-69
2021/12/13 03:17:28;;;;;;;37.37;22.10;;;;;;;;;;5051986;28;20240;-68
2021/12/13 03:20:02;;;;;;;39.63;23.80;;;;;;;;;;5052118;28;20249;-69
2021/12/13 03:22:47;;;;;;;40.30;22.73;;;;;;;;;;5052293;28;20693;-68
2021/12/13 03:25:15;;;;;;;38.03;24.10;;;;;;;;;;5052369;28;20215;-69
2021/12/13 03:28:02;;;;;;;38.60;23.00;;;;;;;;;;5050624;28;20198;-69
2021/12/13 03:30:31;;;;;;;38.77;22.53;;;;;;;;;;5045424;28;20289;-68
2021/12/13 03:32:59;;;;;;;38.87;23.83;;;;;;;;;;5052124;28;20208;-68
2021/12/13 03:35:27;;;;;;;37.70;24.03;;;;;;;;;;5052057;28;20212;-68
2021/12/13 03:37:58;;;;;;;37.50;23.27;;;;;;;;;;5052161;28;20240;-68
2021/12/13 03:40:24;;;;;;;42.90;24.30;;;;;;;;;;5052369;28;20603;-69
2021/12/13 03:42:52;;;;;;;47.40;24.83;;;;;;;;;;5052190;28;20630;-67
2021/12/13 03:45:21;;;;;;;39.17;23.20;;;;;;;;;;5052160;28;20224;-71
2021/12/13 03:47:51;;;;;;;43.10;23.60;;;;;;;;;;5052126;28;20199;-68
2021/12/13 03:50:18;;;;;;;40.07;23.23;;;;;;;;;;5052031;28;20204;-69
2021/12/13 03:52:46;;;;;;;40.57;23.13;;;;;;;;;;5052212;28;20253;-70
2021/12/13 03:55:15;;;;;;;39.07;22.87;;;;;;;;;;5051980;28;20224;-69
2021/12/13 03:57:45;;;;;;;44.47;23.83;;;;;;;;;;5052133;28;20200;-69
2021/12/13 04:00:12;;;;;;;41.57;23.43;;;;;;;;;;5051629;28;20200;-67
2021/12/13 04:02:40;;;;;;;39.70;23.23;;;;;;;;;;5051829;28;20669;-68
2021/12/13 04:05:10;;;;;;;38.37;22.23;;;;;;;;;;5051731;28;20216;-67
2021/12/13 04:07:40;;;;;;;39.00;24.37;;;;;;;;;;5054611;28;20208;-68
2021/12/13 04:10:09;;;;;;;38.00;22.40;;;;;;;;;;5055484;28;20659;-69
2021/12/13 04:12:50;;;;;;;44.23;24.97;;;;;;;;;;5055765;28;20228;-68
2021/12/13 04:15:19;;;;;;;42.03;24.07;;;;;;;;;;5055554;28;20270;-68
2021/12/13 04:17:59;;;;;;;40.73;23.80;;;;;;;;;;5055592;28;20258;-69
2021/12/13 04:20:29;;;;;;;40.27;23.70;;;;;;;;;;5055220;28;20207;-70
2021/12/13 04:22:56;;;;;;;38.87;23.13;;;;;;;;;;5055421;28;20209;-68
2021/12/13 04:25:23;;;;;;;40.63;23.37;;;;;;;;;;5055257;28;20216;-68
2021/12/13 04:27:55;;;;;;;38.90;23.07;;;;;;;;;;5055252;28;20200;-67
2021/12/13 04:30:23;;;;;;;37.97;22.87;;;;;;;;;;5055153;28;20203;-68
2021/12/13 04:32:51;;;;;;;38.00;22.70;;;;;;;;;;5055073;28;20196;-69
2021/12/13 04:35:17;;;;;;;40.83;22.80;;;;;;;;;;5055057;28;20270;-69
2021/12/13 04:37:48;;;;;;;41.00;22.83;;;;;;;;;;5054921;28;20396;-68
2021/12/13 04:40:18;;;;;;;38.10;22.23;;;;;;;;;;5055155;28;20575;-68
2021/12/13 04:42:45;;;;;;;42.90;24.37;;;;;;;;;;5053849;28;20196;-67
2021/12/13 04:45:15;;;;;;;42.43;23.50;;;;;;;;;;5054753;28;20235;-68
2021/12/13 04:47:47;;;;;;;40.40;23.03;;;;;;;;;;5054999;28;20204;-68
2021/12/13 04:50:17;;;;;;;37.30;21.77;;;;;;;;;;5054935;28;20200;-68
2021/12/13 04:52:44;;;;;;;36.77;21.67;;;;;;;;;;5054896;28;20196;-69
2021/12/13 04:55:13;;;;;;;35.40;21.57;;;;;;;;;;5054673;28;20208;-68
2021/12/13 04:57:39;;;;;;;32.97;20.57;;;;;;;;;;5055085;28;20287;-68
2021/12/13 05:00:08;;;;;;;39.20;22.20;;;;;;;;;;5054762;28;20246;-69
2021/12/13 05:02:34;;;;;;;39.50;22.43;;;;;;;;;;5054828;28;20204;-69
2021/12/13 05:05:03;;;;;;;31.93;21.33;;;;;;;;;;5054412;28;20241;-69
2021/12/13 05:07:31;;;;;;;34.80;21.63;;;;;;;;;;5054497;28;20604;-69
2021/12/13 05:09:57;;;;;;;33.33;21.37;;;;;;;;;;5054593;28;20691;-68
2021/12/13 05:12:28;;;;;;;33.73;21.87;;;;;;;;;;5054514;28;20204;-68
2021/12/13 05:14:55;;;;;;;32.77;21.00;;;;;;;;;;5054252;28;20256;-69
2021/12/13 05:17:23;;;;;;;34.10;22.20;;;;;;;;;;5054027;28;20208;-69
2021/12/13 05:19:51;;;;;;;33.77;20.77;;;;;;;;;;5053743;28;20201;-69
2021/12/13 05:22:18;;;;;;;33.97;20.80;;;;;;;;;;5054264;28;20219;-69
2021/12/13 05:24:46;;;;;;;32.87;21.13;;;;;;;;;;5054042;28;20724;-69
2021/12/13 05:27:13;;;;;;;29.53;20.30;;;;;;;;;;5054112;28;20274;-69
2021/12/13 05:29:42;;;;;;;30.73;20.37;;;;;;;;;;5053964;28;20534;-68
2021/12/13 05:32:10;;;;;;;32.03;18.90;;;;;;;;;;5054109;28;20287;-68
2021/12/13 05:34:37;;;;;;;29.40;19.53;;;;;;;;;;5053968;28;20651;-70
2021/12/13 05:37:06;;;;;;;30.33;20.43;;;;;;;;;;5054068;28;20200;-69
2021/12/13 05:39:33;;;;;;;30.90;19.90;;;;;;;;;;5053802;28;20262;-69
2021/12/13 05:42:01;;;;;;;31.10;19.80;;;;;;;;;;5053947;28;20253;-69
2021/12/13 05:44:28;;;;;;;33.10;20.40;;;;;;;;;;5053780;28;20204;-69
2021/12/13 05:46:57;;;;;;;32.47;20.53;;;;;;;;;;5053607;28;20219;-68
2021/12/13 05:49:24;;;;;;;30.10;20.87;;;;;;;;;;5053694;28;20208;-70
2021/12/13 05:51:52;;;;;;;32.23;20.43;;;;;;;;;;5053677;28;20192;-69
2021/12/13 05:54:23;;;;;;;35.07;20.80;;;;;;;;;;5053554;28;20227;-69
2021/12/13 05:56:50;;;;;;;31.20;19.67;;;;;;;;;;5053727;28;20634;-68
2021/12/13 05:59:19;;;;;;;35.57;21.30;;;;;;;;;;5053519;28;20202;-68
2021/12/13 06:01:59;;;;;;;33.07;20.73;;;;;;;;;;5053473;28;20197;-69
2021/12/13 06:04:31;;;;;;;29.87;20.43;;;;;;;;;;5053344;28;20204;-68
2021/12/13 06:06:58;;;;;;;33.77;21.03;;;;;;;;;;5053445;28;20224;-68
2021/12/13 06:09:42;;;;;;;36.57;21.03;;;;;;;;;;5053291;28;20200;-69
2021/12/13 06:12:09;;;;;;;35.13;21.30;;;;;;;;;;5053125;28;20204;-70
2021/12/13 06:14:36;;;;;;;37.70;21.37;;;;;;;;;;5052958;28;20206;-67
2021/12/13 06:17:06;;;;;;;36.13;22.47;;;;;;;;;;5053088;28;20225;-68
2021/12/13 06:19:33;;;;;;;34.20;22.60;;;;;;;;;;5053003;28;20227;-68
2021/12/13 06:22:03;;;;;;;38.20;22.70;;;;;;;;;;5052553;28;20242;-68
2021/12/13 06:24:31;;;;;;;33.17;22.13;;;;;;;;;;5051728;28;20215;-69
2021/12/13 06:27:02;;;;;;;39.40;25.27;;;;;;;;;;5052995;28;20231;-69
2021/12/13 06:29:40;;;;;;;34.83;22.43;;;;;;;;;;5052833;28;20200;-70
2021/12/13 06:32:20;;;;;;;38.73;23.50;;;;;;;;;;5052947;28;20287;-69
2021/12/13 06:34:46;;;;;;;38.40;21.73;;;;;;;;;;5052761;28;20295;-69
2021/12/13 06:37:12;;;;;;;30.93;20.27;;;;;;;;;;5052737;28;20553;-70
2021/12/13 06:39:38;;;;;;;34.23;21.70;;;;;;;;;;5052453;28;20239;-69
2021/12/13 06:42:07;;;;;;;35.67;20.57;;;;;;;;;;5052719;28;20207;-69
2021/12/13 06:44:36;;;;;;;32.37;19.70;;;;;;;;;;5052634;28;20238;-69
2021/12/13 06:47:06;;;;;;;34.97;20.77;;;;;;;;;;5052517;28;20219;-70
2021/12/13 06:49:35;;;;;;;34.77;20.83;;;;;;;;;;5052595;28;20204;-69
2021/12/13 06:52:03;;;;;;;33.17;20.83;;;;;;;;;;5052713;28;20195;-69
2021/12/13 06:54:32;;;;;;;30.13;19.37;;;;;;;;;;5052569;28;20196;-69
2021/12/13 06:56:59;;;;;;;29.07;19.17;;;;;;;;;;5052421;28;20271;-69
2021/12/13 06:59:26;;;;;;;29.90;19.00;;;;;;;;;;5052408;28;20250;-69
2021/12/13 07:02:01;;;;;;;27.37;17.83;;;;;;;;;;5051482;28;20192;-68
2021/12/13 07:04:36;;;;;;;25.20;16.33;;;;;;;;;;5052141;28;20654;-69
2021/12/13 07:07:09;;;;;;;28.60;17.60;;;;;;;;;;5052230;28;20627;-68
2021/12/13 07:09:37;;;;;;;24.90;16.83;;;;;;;;;;5052632;28;20203;-68
2021/12/13 07:12:11;;;;;;;27.40;17.33;;;;;;;;;;5052085;28;20200;-69
2021/12/13 07:14:39;;;;;;;22.50;16.27;;;;;;;;;;5052008;28;20208;-68
2021/12/13 07:17:12;;;;;;;25.27;17.80;;;;;;;;;;5052255;28;20231;-68
2021/12/13 07:19:39;;;;;;;22.33;16.07;;;;;;;;;;5052307;28;20257;-68
2021/12/13 07:22:07;;;;;;;24.73;16.83;;;;;;;;;;5052145;28;20203;-68
2021/12/13 07:24:40;;;;;;;22.37;15.97;;;;;;;;;;5051995;28;20688;-69
2021/12/13 07:27:08;;;;;;;25.00;17.10;;;;;;;;;;5052027;28;20595;-68
2021/12/13 07:29:40;;;;;;;22.40;17.37;;;;;;;;;;5051956;28;20234;-68
2021/12/13 07:32:09;;;;;;;21.30;15.63;;;;;;;;;;5052070;28;20220;-68
2021/12/13 07:34:46;;;;;;;22.00;16.53;;;;;;;;;;5052120;28;20267;-69
2021/12/13 07:37:12;;;;;;;18.50;15.30;;;;;;;;;;5051980;28;20567;-69
2021/12/13 07:39:40;;;;;;;19.87;15.30;;;;;;;;;;5051767;28;20244;-71
2021/12/13 07:42:08;;;;;;;20.47;15.87;;;;;;;;;;5054177;28;20212;-69
2021/12/13 07:44:36;;;;;;;21.53;15.30;;;;;;;;;;5055738;28;20204;-69
2021/12/13 07:47:05;;;;;;;19.43;15.47;;;;;;;;;;5055811;28;20737;-68
2021/12/13 07:49:32;;;;;;;22.60;16.13;;;;;;;;;;5055610;28;20630;-69
2021/12/13 07:52:00;;;;;;;23.40;17.00;;;;;;;;;;5055923;28;20414;-69
2021/12/13 07:54:27;;;;;;;21.47;17.03;;;;;;;;;;5055809;28;20286;-69
2021/12/13 07:56:55;;;;;;;23.97;18.60;;;;;;;;;;5055746;28;20197;-69
2021/12/13 07:59:26;;;;;;;24.47;16.23;;;;;;;;;;5055495;28;20681;-69
2021/12/13 08:01:53;;;;;;;22.27;17.03;;;;;;;;;;5055708;28;20266;-70
2021/12/13 08:04:26;;;;;;;22.20;16.77;;;;;;;;;;5055444;28;20196;-71
2021/12/13 08:06:54;;;;;;;22.97;17.13;;;;;;;;;;5055721;28;20306;-70
2021/12/13 08:09:21;;;;;;;23.40;16.70;;;;;;;;;;5055607;28;20209;-70
2021/12/13 08:11:50;;;;;;;19.53;15.57;;;;;;;;;;5054933;28;20196;-71
2021/12/13 08:14:24;;;;;;;20.87;16.30;;;;;;;;;;5054775;28;20200;-70
2021/12/13 08:16:50;;;;;;;19.90;16.83;;;;;;;;;;5072945;28;20291;-69
2021/12/13 08:19:18;;;;;;;22.17;17.43;;;;;;;;;;5075463;28;20263;-71
2021/12/13 08:21:48;;;;;;;20.57;16.10;;;;;;;;;;5075263;28;20226;-70
2021/12/13 08:24:21;;;;;;;22.30;15.90;;;;;;;;;;5075009;28;20570;-69
2021/12/13 08:26:47;;;;;;;18.60;13.97;;;;;;;;;;5075176;28;20234;-69
2021/12/13 08:29:17;;;;;;;23.20;15.97;;;;;;;;;;5075283;28;20227;-69
2021/12/13 08:31:45;;;;;;;21.33;15.57;;;;;;;;;;5075334;28;20470;-70
2021/12/13 08:34:13;;;;;;;21.43;15.57;;;;;;;;;;5075155;28;20259;-71
2021/12/13 08:36:40;;;;;;;21.07;16.30;;;;;;;;;;5074925;28;20253;-68
2021/12/13 08:39:08;;;;;;;20.40;15.57;;;;;;;;;;5074912;28;20312;-71
2021/12/13 08:41:35;;;;;;;19.47;15.17;;;;;;;;;;5074958;28;20241;-71
2021/12/13 08:44:04;;;;;;;20.87;16.10;;;;;;;;;;5075031;28;20200;-70
2021/12/13 08:46:33;;;;;;;20.57;15.10;;;;;;;;;;5074880;28;20273;-69
2021/12/13 08:49:01;;;;;;;19.03;14.57;;;;;;;;;;5074824;28;20195;-68
2021/12/13 08:51:30;;;;;;;18.27;14.83;;;;;;;;;;5074811;28;20207;-69
2021/12/13 08:54:01;;;;;;;22.20;16.60;;;;;;;;;;5073438;28;20199;-69
2021/12/13 08:56:28;;;;;;;21.33;15.30;;;;;;;;;;5062270;28;20196;-68
2021/12/13 08:59:03;;;;;;;19.93;15.80;;;;;;;;;;5054743;28;20208;-68
2021/12/13 09:01:37;;;;;;;23.50;15.60;;;;;;;;;;5054695;28;20286;-68
2021/12/13 09:04:05;;;;;;;18.90;15.27;;;;;;;;;;5054655;28;20247;-68
2021/12/13 09:06:32;;;;;;;20.60;16.00;;;;;;;;;;5054352;28;20628;-68
2021/12/13 09:09:05;;;;;;;17.10;14.27;;;;;;;;;;5054611;28;20200;-68
2021/12/13 09:11:33;;;;;;;19.70;15.00;;;;;;;;;;5054376;28;20624;-68
2021/12/13 09:14:03;;;;;;;17.13;13.73;;;;;;;;;;5054286;28;20708;-68
2021/12/13 09:16:38;;;;;;;16.13;13.77;;;;;;;;;;5054099;28;20271;-68
2021/12/13 09:19:08;;;;;;;18.70;14.23;;;;;;;;;;5054203;28;20620;-68
2021/12/13 09:21:44;;;;;;;16.80;14.63;;;;;;;;;;5054265;28;20211;-68
2021/12/13 09:24:10;;;;;;;18.30;14.37;;;;;;;;;;5052353;28;20233;-70
2021/12/13 09:26:41;;;;;;;16.87;14.73;;;;;;;;;;5053935;28;20224;-68
2021/12/13 09:29:07;;;;;;;18.47;14.70;;;;;;;;;;5054133;28;20292;-67
2021/12/13 09:31:35;;;;;;;18.63;15.10;;;;;;;;;;5054004;28;20554;-70
2021/12/13 09:34:06;;;;;;;18.77;15.30;;;;;;;;;;5054123;28;20196;-69
2021/12/13 09:36:34;;;;;;;18.93;15.70;;;;;;;;;;5054029;28;20188;-69
2021/12/13 09:39:04;;;;;;;19.70;15.73;;;;;;;;;;5053735;28;20240;-68
2021/12/13 09:41:35;;;;;;;18.90;15.67;;;;;;;;;;5053789;28;20545;-68
2021/12/13 09:44:05;;;;;;;19.97;16.07;;;;;;;;;;5053875;28;20280;-68
2021/12/13 09:46:35;;;;;;;20.13;15.80;;;;;;;;;;5053598;28;20228;-69
2021/12/13 09:49:03;;;;;;;19.70;15.47;;;;;;;;;;5053761;28;20219;-70
2021/12/13 09:51:31;;;;;;;20.77;16.07;;;;;;;;;;5053503;28;20610;-69
2021/12/13 09:54:00;;;;;;;17.83;15.93;;;;;;;;;;5053571;28;20204;-69
2021/12/13 09:56:29;;;;;;;19.17;15.93;;;;;;;;;;5053517;28;20200;-68
2021/12/13 09:58:57;;;;;;;21.50;17.07;;;;;;;;;;5051675;28;20295;-62
2021/12/13 10:01:26;;;;;;;21.70;16.83;;;;;;;;;;5053032;28;20208;-61
2021/12/13 10:03:54;;;;;;;19.60;16.07;;;;;;;;;;5053033;28;20245;-61
2021/12/13 10:06:23;;;;;;;20.77;15.93;;;;;;;;;;5053130;28;20226;-59
2021/12/13 10:08:50;;;;;;;19.60;15.70;;;;;;;;;;5053331;28;20684;-58
2021/12/13 10:11:21;;;;;;;20.40;15.90;;;;;;;;;;5053287;28;20193;-59
2021/12/13 10:13:47;;;;;;;19.97;16.40;;;;;;;;;;5053013;28;20261;-60
2021/12/13 10:16:16;;;;;;;19.00;16.10;;;;;;;;;;5063383;28;20266;-59
2021/12/13 10:18:43;;;;;;;20.57;16.27;;;;;;;;;;5073079;28;20654;-59
2021/12/13 10:21:13;;;;;;;23.33;17.40;;;;;;;;;;5072913;28;20207;-60
2021/12/13 10:23:41;;;;;;;24.17;18.13;;;;;;;;;;5073117;28;20235;-58
2021/12/13 10:26:09;;;;;;;23.27;18.00;;;;;;;;;;5073017;28;20230;-59
2021/12/13 10:28:37;;;;;;;24.23;18.03;;;;;;;;;;5072859;28;20269;-59
2021/12/13 10:31:05;;;;;;;22.80;18.40;;;;;;;;;;5072865;28;20604;-59
2021/12/13 10:33:32;;;;;;;21.80;17.23;;;;;;;;;;5072865;28;20200;-59
2021/12/13 10:36:01;;;;;;;23.57;18.63;;;;;;;;;;5072873;28;20196;-59
2021/12/13 10:38:28;;;;;;;22.67;17.73;;;;;;;;;;5072550;28;20310;-59
2021/12/13 10:40:55;;;;;;;22.90;17.30;;;;;;;;;;5072988;28;20286;-59
2021/12/13 10:43:24;;;;;;;23.97;18.03;;;;;;;;;;5072548;28;20306;-59
2021/12/13 10:45:52;;;;;;;21.77;17.73;;;;;;;;;;5072688;28;20318;-58
2021/12/13 10:48:20;;;;;;;20.73;17.87;;;;;;;;;;5072545;28;20729;-58
2021/12/13 10:50:48;;;;;;;22.13;17.87;;;;;;;;;;5069619;28;20192;-58
2021/12/13 10:53:16;;;;;;;22.13;18.30;;;;;;;;;;5072473;28;20215;-58
2021/12/13 10:55:44;;;;;;;25.47;19.00;;;;;;;;;;5072390;28;20199;-58
2021/12/13 10:58:10;;;;;;;25.33;19.60;;;;;;;;;;5072516;28;20204;-60
2021/12/13 11:00:39;;;;;;;25.17;20.20;;;;;;;;;;5072364;28;20650;-58
2021/12/13 11:03:07;;;;;;;23.77;19.23;;;;;;;;;;5072407;28;20195;-58
2021/12/13 11:05:34;;;;;;;24.97;19.17;;;;;;;;;;5072326;28;20296;-59
2021/12/13 11:08:01;;;;;;;24.13;20.17;;;;;;;;;;5072552;28;20203;-59
2021/12/13 11:10:34;;;;;;;24.57;20.30;;;;;;;;;;5072200;28;20199;-59
2021/12/13 11:13:01;;;;;;;24.37;20.73;;;;;;;;;;5072172;28;20199;-61
2021/12/13 11:15:29;;;;;;;27.10;21.40;;;;;;;;;;5071819;28;20200;-59
2021/12/13 11:17:55;;;;;;;25.87;20.80;;;;;;;;;;5072058;28;20294;-60
2021/12/13 11:20:24;;;;;;;27.20;22.27;;;;;;;;;;5072073;28;20203;-58
2021/12/13 11:22:50;;;;;;;27.20;22.23;;;;;;;;;;5072310;28;20211;-58
2021/12/13 11:25:18;;;;;;;26.17;21.13;;;;;;;;;;5072171;28;20192;-58
2021/12/13 11:27:44;;;;;;;27.43;22.07;;;;;;;;;;5072197;28;20318;-60
2021/12/13 11:30:13;;;;;;;28.93;23.33;;;;;;;;;;5072052;28;20203;-60
2021/12/13 11:32:54;;;;;;;30.43;23.80;;;;;;;;;;5071914;28;20211;-59
2021/12/13 11:35:38;;;;;;;30.13;23.93;;;;;;;;;;5072125;28;20207;-59
2021/12/13 11:38:16;;;;;;;30.67;23.27;;;;;;;;;;5071645;28;20246;-58
2021/12/13 11:41:00;;;;;;;28.23;23.27;;;;;;;;;;5071920;28;20260;-59
2021/12/13 11:43:46;;;;;;;28.03;23.87;;;;;;;;;;5071908;28;20195;-58
2021/12/13 11:46:41;;;;;;;29.43;23.70;;;;;;;;;;5071749;28;20701;-58
2021/12/13 11:49:23;;;;;;;30.83;24.77;;;;;;;;;;5071955;28;20208;-58
2021/12/13 11:52:03;;;;;;;32.40;25.27;;;;;;;;;;5071941;28;20199;-58
2021/12/13 11:54:50;;;;;;;30.87;24.27;;;;;;;;;;5071873;28;20207;-59
2021/12/13 11:57:34;;;;;;;30.90;25.50;;;;;;;;;;5046177;28;20207;-58
2021/12/13 12:00:09;;;;;;;30.53;24.33;;;;;;;;;;5071572;28;20211;-59
2021/12/13 12:02:42;;;;;;;34.77;25.10;;;;;;;;;;5071640;28;20203;-59
2021/12/13 12:05:35;;;;;;;31.47;25.23;;;;;;;;;;5071654;28;20331;-59
2021/12/13 12:08:25;;;;;;;32.10;24.80;;;;;;;;;;5071954;28;20266;-60
2021/12/13 12:11:12;;;;;;;29.80;23.63;;;;;;;;;;5060365;28;20200;-59
2021/12/13 12:13:50;;;;;;;28.30;23.57;;;;;;;;;;5033860;28;20215;-58
2021/12/13 12:16:16;;;;;;;33.07;25.87;;;;;;;;;;5051655;28;20279;-59
2021/12/13 12:18:42;;;;;;;33.53;26.03;;;;;;;;;;5051452;28;20602;-59
2021/12/13 12:21:34;;;;;;;31.53;24.97;;;;;;;;;;5051618;28;20197;-59
2021/12/13 12:24:00;;;;;;;32.93;26.47;;;;;;;;;;5051535;28;20564;-59
2021/12/13 12:26:27;;;;;;;34.57;26.90;;;;;;;;;;5051274;28;20231;-59
2021/12/13 12:28:58;;;;;;;37.70;27.47;;;;;;;;;;5054171;28;20196;-58
2021/12/13 12:31:29;;;;;;;37.07;28.03;;;;;;;;;;5055106;28;20211;-58
2021/12/13 12:33:57;;;;;;;32.80;25.23;;;;;;;;;;5055242;28;20322;-59
2021/12/13 12:36:33;;;;;;;33.10;26.40;;;;;;;;;;5054902;28;20196;-59
2021/12/13 12:39:17;;;;;;;35.10;27.03;;;;;;;;;;5054961;28;20235;-59
2021/12/13 12:41:51;;;;;;;32.30;25.83;;;;;;;;;;5055131;28;20226;-60
2021/12/13 12:44:20;;;;;;;32.43;25.23;;;;;;;;;;5055116;28;20537;-61
2021/12/13 12:46:46;;;;;;;36.77;27.47;;;;;;;;;;5054511;28;20220;-59
2021/12/13 12:49:14;;;;;;;36.83;28.70;;;;;;;;;;5054770;28;20255;-59
2021/12/13 12:51:41;;;;;;;33.90;26.77;;;;;;;;;;5054491;28;20192;-60
2021/12/13 12:54:08;;;;;;;34.20;26.57;;;;;;;;;;5054851;28;20900;-59
2021/12/13 12:56:36;;;;;;;32.87;26.83;;;;;;;;;;5054566;28;20669;-60
2021/12/13 12:59:04;;;;;;;34.03;27.07;;;;;;;;;;5054644;28;20199;-59
2021/12/13 13:01:35;;;;;;;32.93;25.60;;;;;;;;;;5054347;28;20204;-60
2021/12/13 13:04:06;;;;;;;35.63;28.20;;;;;;;;;;5054704;28;20200;-59
2021/12/13 13:06:32;;;;;;;33.87;26.67;;;;;;;;;;5054510;28;20255;-59
2021/12/13 13:08:58;;;;;;;32.73;27.03;;;;;;;;;;5054599;28;20298;-59
2021/12/13 13:11:35;;;;;;;33.10;26.07;;;;;;;;;;5054557;28;20211;-60
2021/12/13 13:14:09;;;;;;;33.57;26.47;;;;;;;;;;5054561;28;20566;-59
2021/12/13 13:16:38;;;;;;;32.77;26.63;;;;;;;;;;5054112;28;20196;-59
2021/12/13 13:19:06;;;;;;;32.13;25.10;;;;;;;;;;5054230;28;20209;-59
2021/12/13 13:21:41;;;;;;;33.53;26.43;;;;;;;;;;5054287;28;20201;-59
2021/12/13 13:24:07;;;;;;;38.87;27.67;;;;;;;;;;5054059;28;20198;-59
2021/12/13 13:26:33;;;;;;;32.80;26.23;;;;;;;;;;5053704;28;20219;-59
2021/12/13 13:29:01;;;;;;;33.20;26.70;;;;;;;;;;5054066;28;20200;-59
2021/12/13 13:31:31;;;;;;;33.03;25.77;;;;;;;;;;5053913;28;20227;-59
2021/12/13 13:34:00;;;;;;;31.57;25.40;;;;;;;;;;5054033;28;20200;-60
2021/12/13 13:36:27;;;;;;;34.80;26.23;;;;;;;;;;5059971;28;20737;-59
2021/12/13 13:39:08;;;;;;;31.30;25.87;;;;;;;;;;5052786;28;20320;-59
2021/12/13 13:41:35;;;;;;;34.37;26.60;;;;;;;;;;5053358;28;20192;-59
2021/12/13 13:44:07;;;;;;;36.43;26.03;;;;;;;;;;5053635;28;20196;-59
2021/12/13 13:46:32;;;;;;;31.97;25.60;;;;;;;;;;5053479;28;20239;-59
2021/12/13 13:49:02;;;;;;;32.27;26.20;;;;;;;;;;5054018;28;20662;-59
2021/12/13 13:51:30;;;;;;;31.87;25.87;;;;;;;;;;5053364;28;20212;-59
2021/12/13 13:53:56;;;;;;;32.53;25.47;;;;;;;;;;5053404;28;20258;-59
2021/12/13 13:56:24;;;;;;;33.27;25.53;;;;;;;;;;5053405;28;20201;-62
2021/12/13 13:58:51;;;;;;;29.27;24.43;;;;;;;;;;5053565;28;20209;-59
2021/12/13 14:01:20;;;;;;;30.73;24.33;;;;;;;;;;5053364;28;20538;-59
2021/12/13 14:03:47;;;;;;;30.87;23.60;;;;;;;;;;5053395;28;20204;-59
2021/12/13 14:06:16;;;;;;;28.33;23.33;;;;;;;;;;5053042;28;20235;-59
2021/12/13 14:08:44;;;;;;;29.93;24.73;;;;;;;;;;5053153;28;20662;-59
2021/12/13 14:11:11;;;;;;;31.57;24.87;;;;;;;;;;5053206;28;20208;-59
2021/12/13 14:13:38;;;;;;;31.90;24.83;;;;;;;;;;5053173;28;20334;-60
2021/12/13 14:16:12;;;;;;;32.40;25.13;;;;;;;;;;5053264;28;20203;-59
2021/12/13 14:18:38;;;;;;;32.73;25.30;;;;;;;;;;5053017;28;20200;-59
2021/12/13 14:21:12;;;;;;;34.40;26.17;;;;;;;;;;5053143;28;20188;-59
2021/12/13 14:23:41;;;;;;;34.50;26.27;;;;;;;;;;5052826;28;20204;-60
2021/12/13 14:26:08;;;;;;;32.70;26.47;;;;;;;;;;5052774;28;20586;-60
2021/12/13 14:28:35;;;;;;;34.07;26.13;;;;;;;;;;5052768;28;20323;-63
2021/12/13 14:31:03;;;;;;;34.47;26.37;;;;;;;;;;5052846;28;20196;-63
2021/12/13 14:33:31;;;;;;;32.20;25.73;;;;;;;;;;5052621;28;20203;-63
2021/12/13 14:36:03;;;;;;;33.23;24.30;;;;;;;;;;5052852;28;20204;-63
2021/12/13 14:38:30;;;;;;;32.63;26.13;;;;;;;;;;5052430;28;20338;-62